Lincoln, NE (68512)

8:40 PM CDT on August 29, 2016 (GMT -0500)
Southwood | | Change Station

Elev 1240 ft 40.76 °N, 96.69 °W | Updated 9 minutes ago

Mostly Cloudy
Mostly Cloudy
70.5 °F
Feels Like 70.5 °F
N
0.0
Wind Variable Wind from West

Today
High -- | Low -- °F
--% Chance of Precip.
Yesterday
High -- | Low -- °F
Precip. -- in
Pressure 30.14 in
Visibility 10.0 miles
Clouds Mostly Cloudy 6000 ft
Mostly Cloudy 7000 ft
Dew Point 68 °F
Humidity 91%
Rainfall 0.75 in
Snow Depth Not available.
6:51 AM 8:02 PM
Waning Crescent, 6% visible
METAR KLNK 300054Z 34006KT 10SM BKN060 BKN070 23/20 A3017 RMK AO2 LTG DSNT E AND SE SLP206 T02280200
Pressure 30.14 in
Visibility 10.0 miles
Clouds Mostly Cloudy 6000 ft
Mostly Cloudy 7000 ft
Dew Point 68 °F
Humidity 91%
Rainfall 0.75 in
Snow Depth Not available.
6:51 AM 8:02 PM
Waning Crescent, 6% visible
METAR KLNK 300054Z 34006KT 10SM BKN060 BKN070 23/20 A3017 RMK AO2 LTG DSNT E AND SE SLP206 T02280200

10-Day Weather Forecast

Almanac

Astronomy

Aug. 29, 2016 Rise Set
Actual Time
Civil Twilight
Nautical Twilight
Astronomical Twilight
Moon
Length of Visible Light
Length of Day
Tomorrow will be .
, % of the Moon is Illuminated

Today's Extremes

State Highs State Lows

Community

WunderPhotos

Upload Photos

1,935,709 photos uploaded!

WunderBlog® & News

Nearby

Air Quality

  Air Quality AQ Index Pollutant
Not available.

Snow Depth

Station Depth Elevation

Earthquake Activity

City Distance Mag. Time & Date
Minimum magnitude displayed is 2.5.

Coastal Water Temperatures

Place Temperature

Stations

Nearby Weather Stations

Station Location Temp. Windchill Dew Point Humidity Wind Precip. Elev Updated Type
                   

Watches & Warnings

There are currently no watches in effect.